sensor_id;sensor_type;location;lat;lon;timestamp;temperature;humidity
16441;DHT22;8330;-33.858;151.184;2023-07-24T00:01:59;14.20;99.90
16441;DHT22;8330;-33.858;151.184;2023-07-24T00:04:31;14.30;99.90
16441;DHT22;8330;-33.858;151.184;2023-07-24T00:07:02;14.20;99.90
16441;DHT22;8330;-33.858;151.184;2023-07-24T00:09:33;14.40;99.90
16441;DHT22;8330;-33.858;151.184;2023-07-24T00:12:03;14.30;99.90
16441;DHT22;8330;-33.858;151.184;2023-07-24T00:14:34;14.30;99.90
16441;DHT22;8330;-33.858;151.184;2023-07-24T00:17:07;14.30;99.90
16441;DHT22;8330;-33.858;151.184;2023-07-24T00:19:38;14.40;99.90
16441;DHT22;8330;-33.858;151.184;2023-07-24T00:22:09;14.50;99.90
16441;DHT22;8330;-33.858;151.184;2023-07-24T00:24:41;14.50;99.90
16441;DHT22;8330;-33.858;151.184;2023-07-24T00:27:11;14.50;99.90
16441;DHT22;8330;-33.858;151.184;2023-07-24T00:29:43;14.60;99.90
16441;DHT22;8330;-33.858;151.184;2023-07-24T00:32:15;14.70;99.90
16441;DHT22;8330;-33.858;151.184;2023-07-24T00:34:46;14.80;99.90
16441;DHT22;8330;-33.858;151.184;2023-07-24T00:37:17;15.00;99.90
16441;DHT22;8330;-33.858;151.184;2023-07-24T00:39:48;15.20;99.90
16441;DHT22;8330;-33.858;151.184;2023-07-24T00:42:19;15.30;99.90
16441;DHT22;8330;-33.858;151.184;2023-07-24T00:44:50;15.50;99.90
16441;DHT22;8330;-33.858;151.184;2023-07-24T00:47:23;15.60;99.90
16441;DHT22;8330;-33.858;151.184;2023-07-24T00:49:55;15.70;99.90
16441;DHT22;8330;-33.858;151.184;2023-07-24T00:52:27;15.80;99.90
16441;DHT22;8330;-33.858;151.184;2023-07-24T00:54:57;15.70;99.90
16441;DHT22;8330;-33.858;151.184;2023-07-24T00:57:29;15.80;99.90
16441;DHT22;8330;-33.858;151.184;2023-07-24T01:00:00;15.80;99.90
16441;DHT22;8330;-33.858;151.184;2023-07-24T01:02:33;15.80;99.90
16441;DHT22;8330;-33.858;151.184;2023-07-24T01:05:05;15.90;99.90
16441;DHT22;8330;-33.858;151.184;2023-07-24T01:07:36;15.90;99.90
16441;DHT22;8330;-33.858;151.184;2023-07-24T01:10:07;15.80;99.90
16441;DHT22;8330;-33.858;151.184;2023-07-24T01:12:43;15.80;99.90
16441;DHT22;8330;-33.858;151.184;2023-07-24T01:15:19;15.70;99.90
16441;DHT22;8330;-33.858;151.184;2023-07-24T01:17:59;15.70;99.90
16441;DHT22;8330;-33.858;151.184;2023-07-24T01:20:31;15.60;99.90
16441;DHT22;8330;-33.858;151.184;2023-07-24T01:23:20;15.70;99.90
16441;DHT22;8330;-33.858;151.184;2023-07-24T01:25:59;15.70;99.90
16441;DHT22;8330;-33.858;151.184;2023-07-24T01:28:30;15.70;99.90
16441;DHT22;8330;-33.858;151.184;2023-07-24T01:31:01;15.80;99.90
16441;DHT22;8330;-33.858;151.184;2023-07-24T01:33:32;15.80;99.90
16441;DHT22;8330;-33.858;151.184;2023-07-24T01:36:05;15.80;99.90
16441;DHT22;8330;-33.858;151.184;2023-07-24T01:38:36;15.80;99.90
16441;DHT22;8330;-33.858;151.184;2023-07-24T01:41:09;15.80;99.90
16441;DHT22;8330;-33.858;151.184;2023-07-24T01:43:40;15.80;99.90
16441;DHT22;8330;-33.858;151.184;2023-07-24T01:46:11;15.80;99.90
16441;DHT22;8330;-33.858;151.184;2023-07-24T01:48:42;15.90;99.90
16441;DHT22;8330;-33.858;151.184;2023-07-24T01:51:13;15.90;99.90
16441;DHT22;8330;-33.858;151.184;2023-07-24T01:53:45;15.90;99.90
16441;DHT22;8330;-33.858;151.184;2023-07-24T01:56:18;16.00;99.90
16441;DHT22;8330;-33.858;151.184;2023-07-24T01:58:48;16.00;99.90
16441;DHT22;8330;-33.858;151.184;2023-07-24T02:01:19;16.10;99.90
16441;DHT22;8330;-33.858;151.184;2023-07-24T02:03:50;16.10;99.90
16441;DHT22;8330;-33.858;151.184;2023-07-24T02:06:21;16.10;99.90
16441;DHT22;8330;-33.858;151.184;2023-07-24T02:08:52;16.20;99.90
16441;DHT22;8330;-33.858;151.184;2023-07-24T02:11:24;16.30;99.90
16441;DHT22;8330;-33.858;151.184;2023-07-24T02:13:55;16.40;99.90
16441;DHT22;8330;-33.858;151.184;2023-07-24T02:16:29;16.40;99.90
16441;DHT22;8330;-33.858;151.184;2023-07-24T02:19:00;16.40;99.90
16441;DHT22;8330;-33.858;151.184;2023-07-24T02:21:34;16.50;99.90
16441;DHT22;8330;-33.858;151.184;2023-07-24T02:24:05;16.50;99.90
16441;DHT22;8330;-33.858;151.184;2023-07-24T02:26:38;16.60;99.90
16441;DHT22;8330;-33.858;151.184;2023-07-24T02:29:09;16.60;99.90
16441;DHT22;8330;-33.858;151.184;2023-07-24T02:31:39;16.50;99.90
16441;DHT22;8330;-33.858;151.184;2023-07-24T02:34:10;16.60;99.90
16441;DHT22;8330;-33.858;151.184;2023-07-24T02:36:42;16.60;99.90
16441;DHT22;8330;-33.858;151.184;2023-07-24T02:39:13;16.60;99.90
16441;DHT22;8330;-33.858;151.184;2023-07-24T02:41:46;16.70;99.90
16441;DHT22;8330;-33.858;151.184;2023-07-24T02:44:21;16.70;99.90
16441;DHT22;8330;-33.858;151.184;2023-07-24T02:46:52;16.70;99.90
16441;DHT22;8330;-33.858;151.184;2023-07-24T02:49:22;16.80;99.90
16441;DHT22;8330;-33.858;151.184;2023-07-24T02:51:53;16.80;99.90
16441;DHT22;8330;-33.858;151.184;2023-07-24T02:54:25;16.70;99.90
16441;DHT22;8330;-33.858;151.184;2023-07-24T02:56:58;16.70;99.90
16441;DHT22;8330;-33.858;151.184;2023-07-24T02:59:29;16.70;99.90
16441;DHT22;8330;-33.858;151.184;2023-07-24T03:02:00;16.70;99.90
16441;DHT22;8330;-33.858;151.184;2023-07-24T03:04:31;16.70;99.90
16441;DHT22;8330;-33.858;151.184;2023-07-24T03:07:02;16.70;99.90
16441;DHT22;8330;-33.858;151.184;2023-07-24T03:09:33;16.70;99.90
16441;DHT22;8330;-33.858;151.184;2023-07-24T03:12:05;16.70;99.90
16441;DHT22;8330;-33.858;151.184;2023-07-24T03:14:36;16.80;99.90
16441;DHT22;8330;-33.858;151.184;2023-07-24T03:17:07;16.80;99.90
16441;DHT22;8330;-33.858;151.184;2023-07-24T03:19:38;16.90;99.90
16441;DHT22;8330;-33.858;151.184;2023-07-24T03:22:09;16.90;99.90
16441;DHT22;8330;-33.858;151.184;2023-07-24T03:24:40;16.90;99.90
16441;DHT22;8330;-33.858;151.184;2023-07-24T03:27:12;16.90;99.90
16441;DHT22;8330;-33.858;151.184;2023-07-24T03:29:43;17.00;99.90
16441;DHT22;8330;-33.858;151.184;2023-07-24T03:32:14;17.00;99.90
16441;DHT22;8330;-33.858;151.184;2023-07-24T03:34:44;17.00;99.90
16441;DHT22;8330;-33.858;151.184;2023-07-24T03:37:15;17.00;99.90
16441;DHT22;8330;-33.858;151.184;2023-07-24T03:39:49;17.00;99.90
16441;DHT22;8330;-33.858;151.184;2023-07-24T03:42:28;17.10;99.90
16441;DHT22;8330;-33.858;151.184;2023-07-24T03:44:59;17.10;99.90
16441;DHT22;8330;-33.858;151.184;2023-07-24T03:47:30;17.10;99.90
16441;DHT22;8330;-33.858;151.184;2023-07-24T03:50:01;17.20;99.90
16441;DHT22;8330;-33.858;151.184;2023-07-24T03:52:32;17.20;99.90
16441;DHT22;8330;-33.858;151.184;2023-07-24T03:55:03;17.20;99.90
16441;DHT22;8330;-33.858;151.184;2023-07-24T03:57:36;17.20;99.90
16441;DHT22;8330;-33.858;151.184;2023-07-24T04:00:07;17.20;99.90
16441;DHT22;8330;-33.858;151.184;2023-07-24T04:02:38;17.20;99.90
16441;DHT22;8330;-33.858;151.184;2023-07-24T04:05:09;17.20;99.90
16441;DHT22;8330;-33.858;151.184;2023-07-24T04:07:40;17.20;99.90
16441;DHT22;8330;-33.858;151.184;2023-07-24T04:10:11;17.20;99.90
16441;DHT22;8330;-33.858;151.184;2023-07-24T04:12:45;17.30;99.90
16441;DHT22;8330;-33.858;151.184;2023-07-24T04:15:15;17.40;99.90
16441;DHT22;8330;-33.858;151.184;2023-07-24T04:17:46;17.50;99.90
16441;DHT22;8330;-33.858;151.184;2023-07-24T04:20:17;17.50;99.90
16441;DHT22;8330;-33.858;151.184;2023-07-24T04:22:48;17.60;99.90
16441;DHT22;8330;-33.858;151.184;2023-07-24T04:25:19;17.70;99.90
16441;DHT22;8330;-33.858;151.184;2023-07-24T04:27:51;17.60;99.90
16441;DHT22;8330;-33.858;151.184;2023-07-24T04:30:22;17.60;99.90
16441;DHT22;8330;-33.858;151.184;2023-07-24T04:32:53;17.60;99.90
16441;DHT22;8330;-33.858;151.184;2023-07-24T04:35:24;17.70;99.90
16441;DHT22;8330;-33.858;151.184;2023-07-24T04:37:54;17.60;99.90
16441;DHT22;8330;-33.858;151.184;2023-07-24T04:40:25;17.70;99.90
16441;DHT22;8330;-33.858;151.184;2023-07-24T04:42:59;17.70;99.90
16441;DHT22;8330;-33.858;151.184;2023-07-24T04:45:31;17.70;99.90
16441;DHT22;8330;-33.858;151.184;2023-07-24T04:48:01;17.70;99.90
16441;DHT22;8330;-33.858;151.184;2023-07-24T04:50:33;17.70;99.90
16441;DHT22;8330;-33.858;151.184;2023-07-24T04:53:06;17.60;99.90
16441;DHT22;8330;-33.858;151.184;2023-07-24T04:55:37;17.50;99.90
16441;DHT22;8330;-33.858;151.184;2023-07-24T04:58:14;17.40;99.90
16441;DHT22;8330;-33.858;151.184;2023-07-24T05:00:45;17.40;99.90
16441;DHT22;8330;-33.858;151.184;2023-07-24T05:03:16;17.30;99.90
16441;DHT22;8330;-33.858;151.184;2023-07-24T05:05:54;17.20;99.90
16441;DHT22;8330;-33.858;151.184;2023-07-24T05:08:25;17.20;99.90
16441;DHT22;8330;-33.858;151.184;2023-07-24T05:10:56;17.30;99.90
16441;DHT22;8330;-33.858;151.184;2023-07-24T05:13:31;17.30;99.90
16441;DHT22;8330;-33.858;151.184;2023-07-24T05:16:02;17.30;99.90
16441;DHT22;8330;-33.858;151.184;2023-07-24T05:18:32;17.30;99.90
16441;DHT22;8330;-33.858;151.184;2023-07-24T05:21:03;17.30;99.90
16441;DHT22;8330;-33.858;151.184;2023-07-24T05:23:34;17.30;99.90
16441;DHT22;8330;-33.858;151.184;2023-07-24T05:26:05;17.20;99.90
16441;DHT22;8330;-33.858;151.184;2023-07-24T05:28:38;17.30;99.90
16441;DHT22;8330;-33.858;151.184;2023-07-24T05:31:10;17.30;99.90
16441;DHT22;8330;-33.858;151.184;2023-07-24T05:33:42;17.30;99.90
16441;DHT22;8330;-33.858;151.184;2023-07-24T05:36:13;17.40;99.90
16441;DHT22;8330;-33.858;151.184;2023-07-24T05:38:44;17.50;99.90
16441;DHT22;8330;-33.858;151.184;2023-07-24T05:41:15;17.50;99.90
16441;DHT22;8330;-33.858;151.184;2023-07-24T05:43:48;17.40;99.90
16441;DHT22;8330;-33.858;151.184;2023-07-24T05:46:19;17.40;99.90
16441;DHT22;8330;-33.858;151.184;2023-07-24T05:48:50;17.40;99.90
16441;DHT22;8330;-33.858;151.184;2023-07-24T05:51:21;17.40;99.90
16441;DHT22;8330;-33.858;151.184;2023-07-24T05:53:52;17.50;99.90
16441;DHT22;8330;-33.858;151.184;2023-07-24T05:56:23;17.50;99.90
16441;DHT22;8330;-33.858;151.184;2023-07-24T05:58:55;17.50;99.90
16441;DHT22;8330;-33.858;151.184;2023-07-24T06:01:26;17.50;99.90
16441;DHT22;8330;-33.858;151.184;2023-07-24T06:03:57;17.50;99.90
16441;DHT22;8330;-33.858;151.184;2023-07-24T06:06:28;17.50;99.90
16441;DHT22;8330;-33.858;151.184;2023-07-24T06:08:59;17.60;99.90
16441;DHT22;8330;-33.858;151.184;2023-07-24T06:11:30;17.70;99.90
16441;DHT22;8330;-33.858;151.184;2023-07-24T06:14:03;17.70;99.90
16441;DHT22;8330;-33.858;151.184;2023-07-24T06:16:34;17.70;99.90
16441;DHT22;8330;-33.858;151.184;2023-07-24T06:19:05;17.70;99.90
16441;DHT22;8330;-33.858;151.184;2023-07-24T06:21:36;17.80;99.90
16441;DHT22;8330;-33.858;151.184;2023-07-24T06:24:07;17.90;99.90
16441;DHT22;8330;-33.858;151.184;2023-07-24T06:26:39;17.90;99.90
16441;DHT22;8330;-33.858;151.184;2023-07-24T06:29:12;17.90;99.90
16441;DHT22;8330;-33.858;151.184;2023-07-24T06:31:44;17.90;99.90
16441;DHT22;8330;-33.858;151.184;2023-07-24T06:34:14;17.90;99.90
16441;DHT22;8330;-33.858;151.184;2023-07-24T06:36:45;17.90;99.90
16441;DHT22;8330;-33.858;151.184;2023-07-24T06:39:16;17.80;99.90
16441;DHT22;8330;-33.858;151.184;2023-07-24T06:41:47;17.70;99.90
16441;DHT22;8330;-33.858;151.184;2023-07-24T06:44:20;17.60;99.90
16441;DHT22;8330;-33.858;151.184;2023-07-24T06:46:50;17.50;99.90
16441;DHT22;8330;-33.858;151.184;2023-07-24T06:49:22;17.40;99.90
16441;DHT22;8330;-33.858;151.184;2023-07-24T06:51:54;17.40;99.90
16441;DHT22;8330;-33.858;151.184;2023-07-24T06:54:27;17.30;99.90
16441;DHT22;8330;-33.858;151.184;2023-07-24T06:57:10;17.20;99.90
16441;DHT22;8330;-33.858;151.184;2023-07-24T06:59:44;17.20;99.90
16441;DHT22;8330;-33.858;151.184;2023-07-24T07:02:17;17.10;99.90
16441;DHT22;8330;-33.858;151.184;2023-07-24T07:04:48;17.00;99.90
16441;DHT22;8330;-33.858;151.184;2023-07-24T07:07:23;17.00;99.90
16441;DHT22;8330;-33.858;151.184;2023-07-24T07:09:55;16.90;99.90
16441;DHT22;8330;-33.858;151.184;2023-07-24T07:12:26;16.80;99.90
16441;DHT22;8330;-33.858;151.184;2023-07-24T07:15:00;16.80;99.90
16441;DHT22;8330;-33.858;151.184;2023-07-24T07:17:31;16.70;99.90
16441;DHT22;8330;-33.858;151.184;2023-07-24T07:20:03;16.70;99.90
16441;DHT22;8330;-33.858;151.184;2023-07-24T07:22:34;16.60;99.90
16441;DHT22;8330;-33.858;151.184;2023-07-24T07:25:12;16.50;99.90
16441;DHT22;8330;-33.858;151.184;2023-07-24T07:27:43;16.50;99.90
16441;DHT22;8330;-33.858;151.184;2023-07-24T07:30:17;16.40;99.90
16441;DHT22;8330;-33.858;151.184;2023-07-24T07:32:48;16.40;99.90
16441;DHT22;8330;-33.858;151.184;2023-07-24T07:35:19;16.40;99.90
16441;DHT22;8330;-33.858;151.184;2023-07-24T07:37:51;16.30;99.90
16441;DHT22;8330;-33.858;151.184;2023-07-24T07:40:23;16.30;99.90
16441;DHT22;8330;-33.858;151.184;2023-07-24T07:42:54;16.30;99.90
16441;DHT22;8330;-33.858;151.184;2023-07-24T07:45:27;16.30;99.90
16441;DHT22;8330;-33.858;151.184;2023-07-24T07:47:59;16.20;99.90
16441;DHT22;8330;-33.858;151.184;2023-07-24T07:50:31;16.20;99.90
16441;DHT22;8330;-33.858;151.184;2023-07-24T07:53:03;16.20;99.90
16441;DHT22;8330;-33.858;151.184;2023-07-24T07:55:36;16.10;99.90
16441;DHT22;8330;-33.858;151.184;2023-07-24T07:58:07;16.10;99.90
16441;DHT22;8330;-33.858;151.184;2023-07-24T08:00:40;16.10;99.90
16441;DHT22;8330;-33.858;151.184;2023-07-24T08:03:12;16.10;99.90
16441;DHT22;8330;-33.858;151.184;2023-07-24T08:05:44;16.00;99.90
16441;DHT22;8330;-33.858;151.184;2023-07-24T08:08:19;16.00;99.90
16441;DHT22;8330;-33.858;151.184;2023-07-24T08:10:51;16.00;99.90
16441;DHT22;8330;-33.858;151.184;2023-07-24T08:13:23;16.00;99.90
16441;DHT22;8330;-33.858;151.184;2023-07-24T08:16:00;16.00;99.90
16441;DHT22;8330;-33.858;151.184;2023-07-24T08:18:31;16.00;99.90
16441;DHT22;8330;-33.858;151.184;2023-07-24T08:21:03;16.00;99.90
16441;DHT22;8330;-33.858;151.184;2023-07-24T08:23:36;15.90;99.90
16441;DHT22;8330;-33.858;151.184;2023-07-24T08:26:08;16.00;99.90
16441;DHT22;8330;-33.858;151.184;2023-07-24T08:28:40;15.90;99.90
16441;DHT22;8330;-33.858;151.184;2023-07-24T08:31:14;15.90;99.90
16441;DHT22;8330;-33.858;151.184;2023-07-24T08:33:45;15.90;99.90
16441;DHT22;8330;-33.858;151.184;2023-07-24T08:36:17;15.90;99.90
16441;DHT22;8330;-33.858;151.184;2023-07-24T08:38:48;15.80;99.90
16441;DHT22;8330;-33.858;151.184;2023-07-24T08:41:20;15.80;99.90
16441;DHT22;8330;-33.858;151.184;2023-07-24T08:43:51;15.80;99.90
16441;DHT22;8330;-33.858;151.184;2023-07-24T08:46:25;15.80;99.90
16441;DHT22;8330;-33.858;151.184;2023-07-24T08:48:58;15.80;99.90
16441;DHT22;8330;-33.858;151.184;2023-07-24T08:51:30;15.70;99.90
16441;DHT22;8330;-33.858;151.184;2023-07-24T08:54:05;15.70;99.90
16441;DHT22;8330;-33.858;151.184;2023-07-24T08:56:37;15.60;99.90
16441;DHT22;8330;-33.858;151.184;2023-07-24T08:59:09;15.60;99.90
16441;DHT22;8330;-33.858;151.184;2023-07-24T09:01:43;15.60;99.90
16441;DHT22;8330;-33.858;151.184;2023-07-24T09:04:14;15.60;99.90
16441;DHT22;8330;-33.858;151.184;2023-07-24T09:06:45;15.50;99.90
16441;DHT22;8330;-33.858;151.184;2023-07-24T09:09:16;15.50;99.90
16441;DHT22;8330;-33.858;151.184;2023-07-24T09:11:51;15.50;99.90
16441;DHT22;8330;-33.858;151.184;2023-07-24T09:14:24;15.50;99.90
16441;DHT22;8330;-33.858;151.184;2023-07-24T09:17:11;15.50;99.90
16441;DHT22;8330;-33.858;151.184;2023-07-24T09:19:42;15.50;99.90
16441;DHT22;8330;-33.858;151.184;2023-07-24T09:22:15;15.50;99.90
16441;DHT22;8330;-33.858;151.184;2023-07-24T09:24:51;15.40;99.90
16441;DHT22;8330;-33.858;151.184;2023-07-24T09:27:25;15.40;99.90
16441;DHT22;8330;-33.858;151.184;2023-07-24T09:29:56;15.40;99.90
16441;DHT22;8330;-33.858;151.184;2023-07-24T09:32:29;15.40;99.90
16441;DHT22;8330;-33.858;151.184;2023-07-24T09:35:01;15.40;99.90
16441;DHT22;8330;-33.858;151.184;2023-07-24T09:37:34;15.40;99.90
16441;DHT22;8330;-33.858;151.184;2023-07-24T09:40:06;15.30;99.90
16441;DHT22;8330;-33.858;151.184;2023-07-24T09:42:38;15.30;99.90
16441;DHT22;8330;-33.858;151.184;2023-07-24T09:45:14;15.30;99.90
16441;DHT22;8330;-33.858;151.184;2023-07-24T09:47:47;15.30;99.90
16441;DHT22;8330;-33.858;151.184;2023-07-24T09:50:20;15.30;99.90
16441;DHT22;8330;-33.858;151.184;2023-07-24T09:52:52;15.30;99.90
16441;DHT22;8330;-33.858;151.184;2023-07-24T09:55:28;15.30;99.90
16441;DHT22;8330;-33.858;151.184;2023-07-24T09:58:01;15.20;99.90
16441;DHT22;8330;-33.858;151.184;2023-07-24T10:00:34;15.20;99.90
16441;DHT22;8330;-33.858;151.184;2023-07-24T10:03:08;15.30;99.90
16441;DHT22;8330;-33.858;151.184;2023-07-24T10:05:46;15.20;99.90
16441;DHT22;8330;-33.858;151.184;2023-07-24T10:08:18;15.20;99.90
16441;DHT22;8330;-33.858;151.184;2023-07-24T10:10:51;15.10;99.90
16441;DHT22;8330;-33.858;151.184;2023-07-24T10:13:22;15.10;99.90
16441;DHT22;8330;-33.858;151.184;2023-07-24T10:15:54;15.10;99.90
16441;DHT22;8330;-33.858;151.184;2023-07-24T10:18:30;15.10;99.90
16441;DHT22;8330;-33.858;151.184;2023-07-24T10:21:04;15.00;99.90
16441;DHT22;8330;-33.858;151.184;2023-07-24T10:23:37;15.00;99.90
16441;DHT22;8330;-33.858;151.184;2023-07-24T10:26:11;15.00;99.90
16441;DHT22;8330;-33.858;151.184;2023-07-24T10:28:46;15.00;99.90
16441;DHT22;8330;-33.858;151.184;2023-07-24T10:31:21;15.00;99.90
16441;DHT22;8330;-33.858;151.184;2023-07-24T10:34:05;15.00;99.90
16441;DHT22;8330;-33.858;151.184;2023-07-24T10:36:37;15.00;99.90
16441;DHT22;8330;-33.858;151.184;2023-07-24T10:39:15;15.00;99.90
16441;DHT22;8330;-33.858;151.184;2023-07-24T10:41:48;14.90;99.90
16441;DHT22;8330;-33.858;151.184;2023-07-24T10:44:19;14.90;99.90
16441;DHT22;8330;-33.858;151.184;2023-07-24T10:47:00;14.80;99.90
16441;DHT22;8330;-33.858;151.184;2023-07-24T10:49:36;14.80;99.90
16441;DHT22;8330;-33.858;151.184;2023-07-24T10:52:07;14.80;99.90
16441;DHT22;8330;-33.858;151.184;2023-07-24T10:54:41;14.80;99.90
16441;DHT22;8330;-33.858;151.184;2023-07-24T10:57:14;14.70;99.90
16441;DHT22;8330;-33.858;151.184;2023-07-24T10:59:47;14.60;99.90
16441;DHT22;8330;-33.858;151.184;2023-07-24T11:02:20;14.60;99.90
16441;DHT22;8330;-33.858;151.184;2023-07-24T11:04:53;14.60;99.90
16441;DHT22;8330;-33.858;151.184;2023-07-24T11:07:24;14.50;99.90
16441;DHT22;8330;-33.858;151.184;2023-07-24T11:09:56;14.50;99.90
16441;DHT22;8330;-33.858;151.184;2023-07-24T11:12:27;14.50;99.90
16441;DHT22;8330;-33.858;151.184;2023-07-24T11:14:59;14.50;99.90
16441;DHT22;8330;-33.858;151.184;2023-07-24T11:17:37;14.50;99.90
16441;DHT22;8330;-33.858;151.184;2023-07-24T11:20:17;14.50;99.90
16441;DHT22;8330;-33.858;151.184;2023-07-24T11:22:57;14.50;99.90
16441;DHT22;8330;-33.858;151.184;2023-07-24T11:25:30;14.50;99.90
16441;DHT22;8330;-33.858;151.184;2023-07-24T11:28:12;14.50;99.90
16441;DHT22;8330;-33.858;151.184;2023-07-24T11:30:46;14.50;99.90
16441;DHT22;8330;-33.858;151.184;2023-07-24T11:33:21;14.50;99.90
16441;DHT22;8330;-33.858;151.184;2023-07-24T11:36:07;14.50;99.90
16441;DHT22;8330;-33.858;151.184;2023-07-24T11:38:45;14.40;99.90
16441;DHT22;8330;-33.858;151.184;2023-07-24T11:41:18;14.40;99.90
16441;DHT22;8330;-33.858;151.184;2023-07-24T11:43:54;14.40;99.90
16441;DHT22;8330;-33.858;151.184;2023-07-24T11:46:27;14.30;99.90
16441;DHT22;8330;-33.858;151.184;2023-07-24T11:49:03;14.30;99.90
16441;DHT22;8330;-33.858;151.184;2023-07-24T11:51:47;14.30;99.90
16441;DHT22;8330;-33.858;151.184;2023-07-24T11:54:24;14.30;99.90
16441;DHT22;8330;-33.858;151.184;2023-07-24T11:56:58;14.20;99.90
16441;DHT22;8330;-33.858;151.184;2023-07-24T11:59:39;14.30;99.90
16441;DHT22;8330;-33.858;151.184;2023-07-24T12:02:15;14.20;99.90
16441;DHT22;8330;-33.858;151.184;2023-07-24T12:04:53;14.20;99.90
16441;DHT22;8330;-33.858;151.184;2023-07-24T12:07:30;14.20;99.90
16441;DHT22;8330;-33.858;151.184;2023-07-24T12:10:10;14.20;99.90
16441;DHT22;8330;-33.858;151.184;2023-07-24T12:12:45;14.20;99.90
16441;DHT22;8330;-33.858;151.184;2023-07-24T12:15:27;14.20;99.90
16441;DHT22;8330;-33.858;151.184;2023-07-24T12:18:03;14.20;99.90
16441;DHT22;8330;-33.858;151.184;2023-07-24T12:20:36;14.20;99.90
16441;DHT22;8330;-33.858;151.184;2023-07-24T12:23:19;14.10;99.90
16441;DHT22;8330;-33.858;151.184;2023-07-24T12:25:51;14.10;99.90
16441;DHT22;8330;-33.858;151.184;2023-07-24T12:28:37;14.10;99.90
16441;DHT22;8330;-33.858;151.184;2023-07-24T12:31:16;14.10;99.90
16441;DHT22;8330;-33.858;151.184;2023-07-24T12:33:50;14.10;99.90
16441;DHT22;8330;-33.858;151.184;2023-07-24T12:36:23;14.10;99.90
16441;DHT22;8330;-33.858;151.184;2023-07-24T12:39:25;14.00;99.90
16441;DHT22;8330;-33.858;151.184;2023-07-24T12:42:08;14.00;99.90
16441;DHT22;8330;-33.858;151.184;2023-07-24T12:44:45;13.90;99.90
16441;DHT22;8330;-33.858;151.184;2023-07-24T12:47:28;13.90;99.90
16441;DHT22;8330;-33.858;151.184;2023-07-24T12:50:05;13.90;99.90
16441;DHT22;8330;-33.858;151.184;2023-07-24T12:52:40;13.80;99.90
16441;DHT22;8330;-33.858;151.184;2023-07-24T12:55:17;13.70;99.90
16441;DHT22;8330;-33.858;151.184;2023-07-24T12:57:53;13.70;99.90
16441;DHT22;8330;-33.858;151.184;2023-07-24T13:00:27;13.70;99.90
16441;DHT22;8330;-33.858;151.184;2023-07-24T13:03:06;13.70;99.90
16441;DHT22;8330;-33.858;151.184;2023-07-24T13:05:43;13.70;99.90
16441;DHT22;8330;-33.858;151.184;2023-07-24T13:08:18;13.70;99.90
16441;DHT22;8330;-33.858;151.184;2023-07-24T13:10:55;13.70;99.90
16441;DHT22;8330;-33.858;151.184;2023-07-24T13:13:25;13.70;99.90
16441;DHT22;8330;-33.858;151.184;2023-07-24T13:16:00;13.60;99.90
16441;DHT22;8330;-33.858;151.184;2023-07-24T13:18:41;13.60;99.90
16441;DHT22;8330;-33.858;151.184;2023-07-24T13:21:14;13.60;99.90
16441;DHT22;8330;-33.858;151.184;2023-07-24T13:23:46;13.60;99.90
16441;DHT22;8330;-33.858;151.184;2023-07-24T13:26:31;13.60;99.90
16441;DHT22;8330;-33.858;151.184;2023-07-24T13:29:04;13.60;99.90
16441;DHT22;8330;-33.858;151.184;2023-07-24T13:31:37;13.60;99.90
16441;DHT22;8330;-33.858;151.184;2023-07-24T13:34:09;13.50;99.90
16441;DHT22;8330;-33.858;151.184;2023-07-24T13:36:41;13.50;99.90
16441;DHT22;8330;-33.858;151.184;2023-07-24T13:39:15;13.50;99.90
16441;DHT22;8330;-33.858;151.184;2023-07-24T13:41:51;13.50;99.90
16441;DHT22;8330;-33.858;151.184;2023-07-24T13:44:26;13.50;99.90
16441;DHT22;8330;-33.858;151.184;2023-07-24T13:47:07;13.50;99.90
16441;DHT22;8330;-33.858;151.184;2023-07-24T13:49:43;13.50;99.90
16441;DHT22;8330;-33.858;151.184;2023-07-24T13:52:16;13.50;99.90
16441;DHT22;8330;-33.858;151.184;2023-07-24T13:54:58;13.50;99.90
16441;DHT22;8330;-33.858;151.184;2023-07-24T13:57:33;13.50;99.90
16441;DHT22;8330;-33.858;151.184;2023-07-24T14:00:08;13.50;99.90
16441;DHT22;8330;-33.858;151.184;2023-07-24T14:02:50;13.50;99.90
16441;DHT22;8330;-33.858;151.184;2023-07-24T14:05:22;13.40;99.90
16441;DHT22;8330;-33.858;151.184;2023-07-24T14:07:57;13.40;99.90
16441;DHT22;8330;-33.858;151.184;2023-07-24T14:10:34;13.40;99.90
16441;DHT22;8330;-33.858;151.184;2023-07-24T14:13:26;13.40;99.90
16441;DHT22;8330;-33.858;151.184;2023-07-24T14:15:56;13.40;99.90
16441;DHT22;8330;-33.858;151.184;2023-07-24T14:21:50;13.30;99.90
16441;DHT22;8330;-33.858;151.184;2023-07-24T14:24:23;13.30;99.90
16441;DHT22;8330;-33.858;151.184;2023-07-24T14:26:56;13.20;99.90
16441;DHT22;8330;-33.858;151.184;2023-07-24T14:29:41;13.20;99.90
16441;DHT22;8330;-33.858;151.184;2023-07-24T14:32:12;13.30;99.90
16441;DHT22;8330;-33.858;151.184;2023-07-24T14:34:43;13.20;99.90
16441;DHT22;8330;-33.858;151.184;2023-07-24T14:37:14;13.30;99.90
16441;DHT22;8330;-33.858;151.184;2023-07-24T14:39:46;13.30;99.90
16441;DHT22;8330;-33.858;151.184;2023-07-24T14:42:17;13.20;99.90
16441;DHT22;8330;-33.858;151.184;2023-07-24T14:44:52;13.20;99.90
16441;DHT22;8330;-33.858;151.184;2023-07-24T14:47:29;13.20;99.90
16441;DHT22;8330;-33.858;151.184;2023-07-24T14:50:01;13.20;99.90
16441;DHT22;8330;-33.858;151.184;2023-07-24T14:52:32;13.20;99.90
16441;DHT22;8330;-33.858;151.184;2023-07-24T14:55:04;13.30;99.90
16441;DHT22;8330;-33.858;151.184;2023-07-24T14:57:36;13.20;99.90
16441;DHT22;8330;-33.858;151.184;2023-07-24T15:00:10;13.20;99.90
16441;DHT22;8330;-33.858;151.184;2023-07-24T15:02:41;13.20;99.90
16441;DHT22;8330;-33.858;151.184;2023-07-24T15:05:15;13.20;99.90
16441;DHT22;8330;-33.858;151.184;2023-07-24T15:07:46;13.20;99.90
16441;DHT22;8330;-33.858;151.184;2023-07-24T15:10:18;13.20;99.90
16441;DHT22;8330;-33.858;151.184;2023-07-24T15:12:50;13.10;99.90
16441;DHT22;8330;-33.858;151.184;2023-07-24T15:15:23;13.10;99.90
16441;DHT22;8330;-33.858;151.184;2023-07-24T15:17:53;13.00;99.90
16441;DHT22;8330;-33.858;151.184;2023-07-24T15:20:24;13.10;99.90
16441;DHT22;8330;-33.858;151.184;2023-07-24T15:22:55;13.10;99.90
16441;DHT22;8330;-33.858;151.184;2023-07-24T15:25:27;13.10;99.90
16441;DHT22;8330;-33.858;151.184;2023-07-24T15:27:59;13.00;99.90
16441;DHT22;8330;-33.858;151.184;2023-07-24T15:30:32;13.00;99.90
16441;DHT22;8330;-33.858;151.184;2023-07-24T15:33:02;13.00;99.90
16441;DHT22;8330;-33.858;151.184;2023-07-24T15:35:33;13.00;99.90
16441;DHT22;8330;-33.858;151.184;2023-07-24T15:38:05;13.00;99.90
16441;DHT22;8330;-33.858;151.184;2023-07-24T15:40:39;12.90;99.90
16441;DHT22;8330;-33.858;151.184;2023-07-24T15:43:11;12.90;99.90